sensor_id;sensor_type;location;lat;lon;timestamp;P1;durP1;ratioP1;P2;durP2;ratioP2
15616;SDS011;7908;51.688;7.130;2023-10-09T00:01:05;1541.10;;;999.90;;
15616;SDS011;7908;51.688;7.130;2023-10-09T00:03:40;1550.57;;;999.90;;
15616;SDS011;7908;51.688;7.130;2023-10-09T00:06:09;1534.57;;;999.90;;
15616;SDS011;7908;51.688;7.130;2023-10-09T00:08:41;1529.03;;;999.90;;
15616;SDS011;7908;51.688;7.130;2023-10-09T00:11:12;1514.20;;;999.90;;
15616;SDS011;7908;51.688;7.130;2023-10-09T00:13:43;1468.53;;;999.90;;
15616;SDS011;7908;51.688;7.130;2023-10-09T00:16:24;1479.67;;;999.90;;
15616;SDS011;7908;51.688;7.130;2023-10-09T00:19:04;1496.60;;;999.90;;
15616;SDS011;7908;51.688;7.130;2023-10-09T00:21:44;1533.43;;;999.90;;
15616;SDS011;7908;51.688;7.130;2023-10-09T00:24:15;1516.23;;;999.90;;
15616;SDS011;7908;51.688;7.130;2023-10-09T00:26:50;1525.37;;;999.90;;
15616;SDS011;7908;51.688;7.130;2023-10-09T00:29:22;1518.87;;;999.90;;
15616;SDS011;7908;51.688;7.130;2023-10-09T00:31:55;1506.50;;;999.90;;
15616;SDS011;7908;51.688;7.130;2023-10-09T00:34:32;1495.83;;;999.90;;
15616;SDS011;7908;51.688;7.130;2023-10-09T00:37:06;1518.77;;;999.90;;
15616;SDS011;7908;51.688;7.130;2023-10-09T00:39:43;1510.40;;;999.90;;
15616;SDS011;7908;51.688;7.130;2023-10-09T00:42:14;1505.43;;;999.90;;
15616;SDS011;7908;51.688;7.130;2023-10-09T00:44:52;1513.50;;;999.90;;
15616;SDS011;7908;51.688;7.130;2023-10-09T00:47:22;1527.77;;;999.90;;
15616;SDS011;7908;51.688;7.130;2023-10-09T00:50:02;1492.00;;;999.90;;
15616;SDS011;7908;51.688;7.130;2023-10-09T00:52:37;1532.90;;;999.90;;
15616;SDS011;7908;51.688;7.130;2023-10-09T00:55:11;1471.07;;;999.90;;
15616;SDS011;7908;51.688;7.130;2023-10-09T00:57:42;1452.53;;;999.90;;
15616;SDS011;7908;51.688;7.130;2023-10-09T01:00:23;1445.03;;;999.90;;
15616;SDS011;7908;51.688;7.130;2023-10-09T01:03:16;1445.47;;;999.90;;
15616;SDS011;7908;51.688;7.130;2023-10-09T01:05:51;1451.80;;;999.90;;
15616;SDS011;7908;51.688;7.130;2023-10-09T01:08:25;1446.57;;;999.90;;
15616;SDS011;7908;51.688;7.130;2023-10-09T01:11:04;1478.70;;;999.90;;
15616;SDS011;7908;51.688;7.130;2023-10-09T01:13:45;1451.27;;;999.90;;
15616;SDS011;7908;51.688;7.130;2023-10-09T01:16:23;1476.20;;;999.90;;
15616;SDS011;7908;51.688;7.130;2023-10-09T01:18:52;1456.80;;;999.90;;
15616;SDS011;7908;51.688;7.130;2023-10-09T01:21:24;1479.17;;;999.90;;
15616;SDS011;7908;51.688;7.130;2023-10-09T01:23:55;1459.47;;;999.90;;
15616;SDS011;7908;51.688;7.130;2023-10-09T01:26:31;1465.03;;;999.90;;
15616;SDS011;7908;51.688;7.130;2023-10-09T01:29:06;1489.87;;;999.90;;
15616;SDS011;7908;51.688;7.130;2023-10-09T01:31:37;1486.17;;;999.90;;
15616;SDS011;7908;51.688;7.130;2023-10-09T01:34:10;1502.03;;;999.90;;
15616;SDS011;7908;51.688;7.130;2023-10-09T01:36:41;1486.47;;;999.90;;
15616;SDS011;7908;51.688;7.130;2023-10-09T01:39:12;1494.13;;;999.90;;
15616;SDS011;7908;51.688;7.130;2023-10-09T01:41:50;1477.47;;;999.90;;
15616;SDS011;7908;51.688;7.130;2023-10-09T01:44:25;1461.93;;;999.90;;
15616;SDS011;7908;51.688;7.130;2023-10-09T01:46:57;1474.93;;;999.90;;
15616;SDS011;7908;51.688;7.130;2023-10-09T01:49:25;1405.37;;;999.90;;
15616;SDS011;7908;51.688;7.130;2023-10-09T01:52:00;1474.83;;;999.90;;
15616;SDS011;7908;51.688;7.130;2023-10-09T01:54:36;1483.50;;;999.90;;
15616;SDS011;7908;51.688;7.130;2023-10-09T01:57:05;1454.77;;;999.90;;
15616;SDS011;7908;51.688;7.130;2023-10-09T01:59:39;1443.10;;;999.90;;
15616;SDS011;7908;51.688;7.130;2023-10-09T02:02:11;1442.23;;;999.90;;
15616;SDS011;7908;51.688;7.130;2023-10-09T02:04:53;1395.03;;;999.90;;
15616;SDS011;7908;51.688;7.130;2023-10-09T02:07:34;1444.83;;;999.90;;
15616;SDS011;7908;51.688;7.130;2023-10-09T02:10:12;1423.00;;;999.90;;
15616;SDS011;7908;51.688;7.130;2023-10-09T02:12:52;1434.20;;;999.90;;
15616;SDS011;7908;51.688;7.130;2023-10-09T02:15:25;1394.23;;;999.90;;
15616;SDS011;7908;51.688;7.130;2023-10-09T02:18:18;1410.97;;;999.90;;
15616;SDS011;7908;51.688;7.130;2023-10-09T02:21:07;1443.60;;;999.90;;
15616;SDS011;7908;51.688;7.130;2023-10-09T02:23:42;1427.90;;;999.90;;
15616;SDS011;7908;51.688;7.130;2023-10-09T02:26:17;1427.17;;;999.90;;
15616;SDS011;7908;51.688;7.130;2023-10-09T02:28:52;1414.10;;;999.90;;
15616;SDS011;7908;51.688;7.130;2023-10-09T02:31:26;1425.83;;;999.90;;
15616;SDS011;7908;51.688;7.130;2023-10-09T02:34:04;1398.33;;;999.90;;
15616;SDS011;7908;51.688;7.130;2023-10-09T02:36:39;1414.63;;;999.90;;
15616;SDS011;7908;51.688;7.130;2023-10-09T02:39:16;1393.63;;;999.90;;
15616;SDS011;7908;51.688;7.130;2023-10-09T02:44:21;1409.33;;;999.90;;
15616;SDS011;7908;51.688;7.130;2023-10-09T02:46:58;1393.87;;;999.90;;
15616;SDS011;7908;51.688;7.130;2023-10-09T02:49:34;1401.63;;;999.90;;
15616;SDS011;7908;51.688;7.130;2023-10-09T02:52:05;1392.27;;;999.90;;
15616;SDS011;7908;51.688;7.130;2023-10-09T02:54:34;1395.37;;;999.90;;
15616;SDS011;7908;51.688;7.130;2023-10-09T02:57:07;1381.27;;;999.90;;
15616;SDS011;7908;51.688;7.130;2023-10-09T02:59:42;1401.80;;;999.90;;
15616;SDS011;7908;51.688;7.130;2023-10-09T03:02:11;1374.27;;;999.90;;
15616;SDS011;7908;51.688;7.130;2023-10-09T03:04:42;1403.33;;;999.90;;
15616;SDS011;7908;51.688;7.130;2023-10-09T03:07:10;1390.07;;;999.90;;
15616;SDS011;7908;51.688;7.130;2023-10-09T03:09:40;1389.77;;;999.90;;
15616;SDS011;7908;51.688;7.130;2023-10-09T03:12:09;1385.57;;;999.90;;
15616;SDS011;7908;51.688;7.130;2023-10-09T03:14:39;1407.33;;;999.90;;
15616;SDS011;7908;51.688;7.130;2023-10-09T03:17:09;1389.67;;;999.90;;
15616;SDS011;7908;51.688;7.130;2023-10-09T03:19:40;1404.77;;;999.90;;
15616;SDS011;7908;51.688;7.130;2023-10-09T03:22:10;1406.07;;;999.90;;
15616;SDS011;7908;51.688;7.130;2023-10-09T03:24:39;1410.53;;;999.90;;
15616;SDS011;7908;51.688;7.130;2023-10-09T03:27:16;1416.47;;;999.90;;
15616;SDS011;7908;51.688;7.130;2023-10-09T03:29:45;1406.07;;;999.90;;
15616;SDS011;7908;51.688;7.130;2023-10-09T03:32:17;1405.17;;;999.90;;
15616;SDS011;7908;51.688;7.130;2023-10-09T03:34:47;1427.63;;;999.90;;
15616;SDS011;7908;51.688;7.130;2023-10-09T03:37:18;1406.50;;;999.90;;
15616;SDS011;7908;51.688;7.130;2023-10-09T03:40:00;1400.77;;;999.90;;
15616;SDS011;7908;51.688;7.130;2023-10-09T03:42:33;1408.93;;;999.90;;
15616;SDS011;7908;51.688;7.130;2023-10-09T03:45:03;1423.37;;;999.90;;
15616;SDS011;7908;51.688;7.130;2023-10-09T03:47:40;1441.93;;;999.90;;
15616;SDS011;7908;51.688;7.130;2023-10-09T03:50:11;1409.37;;;999.90;;
15616;SDS011;7908;51.688;7.130;2023-10-09T03:52:53;1400.40;;;999.90;;
15616;SDS011;7908;51.688;7.130;2023-10-09T03:55:22;1389.97;;;999.90;;
15616;SDS011;7908;51.688;7.130;2023-10-09T03:57:55;1422.43;;;999.90;;
15616;SDS011;7908;51.688;7.130;2023-10-09T04:00:24;1413.90;;;999.90;;
15616;SDS011;7908;51.688;7.130;2023-10-09T04:02:55;1420.87;;;999.90;;
15616;SDS011;7908;51.688;7.130;2023-10-09T04:05:26;1379.03;;;999.90;;
15616;SDS011;7908;51.688;7.130;2023-10-09T04:07:55;1375.97;;;999.90;;
15616;SDS011;7908;51.688;7.130;2023-10-09T04:10:25;1386.83;;;999.90;;
15616;SDS011;7908;51.688;7.130;2023-10-09T04:13:22;1377.77;;;999.90;;
15616;SDS011;7908;51.688;7.130;2023-10-09T04:16:00;1389.20;;;999.90;;
15616;SDS011;7908;51.688;7.130;2023-10-09T04:18:37;1383.60;;;999.90;;
15616;SDS011;7908;51.688;7.130;2023-10-09T04:21:08;1400.93;;;999.90;;
15616;SDS011;7908;51.688;7.130;2023-10-09T04:23:46;1423.03;;;999.90;;
15616;SDS011;7908;51.688;7.130;2023-10-09T04:26:32;1413.37;;;999.90;;
15616;SDS011;7908;51.688;7.130;2023-10-09T04:29:03;1405.93;;;999.90;;
15616;SDS011;7908;51.688;7.130;2023-10-09T04:31:32;1387.27;;;999.90;;
15616;SDS011;7908;51.688;7.130;2023-10-09T04:34:04;1423.80;;;999.90;;
15616;SDS011;7908;51.688;7.130;2023-10-09T04:37:03;1418.50;;;999.90;;
15616;SDS011;7908;51.688;7.130;2023-10-09T04:40:03;1404.33;;;999.90;;
15616;SDS011;7908;51.688;7.130;2023-10-09T04:42:40;1424.47;;;999.90;;
15616;SDS011;7908;51.688;7.130;2023-10-09T04:45:13;1404.97;;;999.90;;
15616;SDS011;7908;51.688;7.130;2023-10-09T04:48:13;1393.43;;;999.90;;
15616;SDS011;7908;51.688;7.130;2023-10-09T04:50:59;1391.80;;;999.90;;
15616;SDS011;7908;51.688;7.130;2023-10-09T04:53:46;1428.97;;;999.90;;
15616;SDS011;7908;51.688;7.130;2023-10-09T04:56:39;1391.63;;;999.90;;
15616;SDS011;7908;51.688;7.130;2023-10-09T04:59:19;1404.60;;;999.90;;
15616;SDS011;7908;51.688;7.130;2023-10-09T05:01:52;1420.77;;;999.90;;
15616;SDS011;7908;51.688;7.130;2023-10-09T05:04:31;1407.27;;;999.90;;
15616;SDS011;7908;51.688;7.130;2023-10-09T05:07:08;1390.77;;;999.90;;
15616;SDS011;7908;51.688;7.130;2023-10-09T05:09:52;1403.10;;;999.90;;
15616;SDS011;7908;51.688;7.130;2023-10-09T05:12:31;1402.77;;;999.90;;
15616;SDS011;7908;51.688;7.130;2023-10-09T05:14:58;1396.90;;;999.90;;
15616;SDS011;7908;51.688;7.130;2023-10-09T05:17:35;1385.57;;;999.90;;
15616;SDS011;7908;51.688;7.130;2023-10-09T05:20:05;1404.00;;;999.90;;
15616;SDS011;7908;51.688;7.130;2023-10-09T05:22:52;1415.07;;;999.90;;
15616;SDS011;7908;51.688;7.130;2023-10-09T05:25:44;1388.97;;;999.90;;
15616;SDS011;7908;51.688;7.130;2023-10-09T05:28:22;1399.33;;;999.90;;
15616;SDS011;7908;51.688;7.130;2023-10-09T05:30:58;1393.07;;;999.90;;
15616;SDS011;7908;51.688;7.130;2023-10-09T05:33:33;1375.73;;;999.90;;
15616;SDS011;7908;51.688;7.130;2023-10-09T05:36:04;1375.03;;;999.90;;
15616;SDS011;7908;51.688;7.130;2023-10-09T05:38:44;1351.40;;;999.90;;
15616;SDS011;7908;51.688;7.130;2023-10-09T05:41:26;1375.63;;;999.90;;
15616;SDS011;7908;51.688;7.130;2023-10-09T05:44:19;1332.13;;;999.90;;
15616;SDS011;7908;51.688;7.130;2023-10-09T05:47:05;1354.00;;;999.90;;
15616;SDS011;7908;51.688;7.130;2023-10-09T05:50:06;1372.47;;;999.90;;
15616;SDS011;7908;51.688;7.130;2023-10-09T05:52:52;1371.43;;;999.90;;
15616;SDS011;7908;51.688;7.130;2023-10-09T05:55:31;1375.17;;;999.90;;
15616;SDS011;7908;51.688;7.130;2023-10-09T05:58:21;1364.63;;;999.90;;
15616;SDS011;7908;51.688;7.130;2023-10-09T06:01:07;1392.00;;;999.90;;
15616;SDS011;7908;51.688;7.130;2023-10-09T06:03:54;1408.37;;;999.90;;
15616;SDS011;7908;51.688;7.130;2023-10-09T06:06:31;1392.40;;;999.90;;
15616;SDS011;7908;51.688;7.130;2023-10-09T06:09:10;1400.10;;;999.90;;
15616;SDS011;7908;51.688;7.130;2023-10-09T06:12:05;1406.40;;;999.90;;
15616;SDS011;7908;51.688;7.130;2023-10-09T06:15:22;1397.83;;;999.90;;
15616;SDS011;7908;51.688;7.130;2023-10-09T06:18:19;1410.00;;;999.90;;
15616;SDS011;7908;51.688;7.130;2023-10-09T06:20:53;1402.80;;;999.90;;
15616;SDS011;7908;51.688;7.130;2023-10-09T06:23:51;1386.67;;;999.90;;
15616;SDS011;7908;51.688;7.130;2023-10-09T06:26:52;1385.63;;;999.90;;
15616;SDS011;7908;51.688;7.130;2023-10-09T06:29:50;1396.57;;;999.90;;
15616;SDS011;7908;51.688;7.130;2023-10-09T06:32:41;1419.43;;;999.90;;
15616;SDS011;7908;51.688;7.130;2023-10-09T06:35:17;1416.03;;;999.90;;
15616;SDS011;7908;51.688;7.130;2023-10-09T06:37:57;1375.27;;;999.90;;
15616;SDS011;7908;51.688;7.130;2023-10-09T06:40:47;1354.03;;;999.90;;
15616;SDS011;7908;51.688;7.130;2023-10-09T06:43:34;1370.83;;;999.90;;
15616;SDS011;7908;51.688;7.130;2023-10-09T06:46:15;1389.50;;;999.90;;
15616;SDS011;7908;51.688;7.130;2023-10-09T06:49:02;1391.00;;;999.90;;
15616;SDS011;7908;51.688;7.130;2023-10-09T06:51:56;1412.17;;;999.90;;
15616;SDS011;7908;51.688;7.130;2023-10-09T06:54:41;1387.13;;;999.90;;
15616;SDS011;7908;51.688;7.130;2023-10-09T06:57:18;1379.37;;;999.90;;
15616;SDS011;7908;51.688;7.130;2023-10-09T07:00:00;1401.13;;;999.90;;
15616;SDS011;7908;51.688;7.130;2023-10-09T07:03:04;1382.07;;;999.90;;
15616;SDS011;7908;51.688;7.130;2023-10-09T07:05:40;1393.80;;;999.90;;
15616;SDS011;7908;51.688;7.130;2023-10-09T07:08:33;1402.07;;;999.90;;
15616;SDS011;7908;51.688;7.130;2023-10-09T07:11:06;1411.53;;;999.90;;
15616;SDS011;7908;51.688;7.130;2023-10-09T07:14:24;1387.93;;;999.90;;
15616;SDS011;7908;51.688;7.130;2023-10-09T07:17:11;1432.53;;;999.90;;
15616;SDS011;7908;51.688;7.130;2023-10-09T07:20:11;1410.10;;;999.90;;
15616;SDS011;7908;51.688;7.130;2023-10-09T07:23:04;1409.20;;;999.90;;
15616;SDS011;7908;51.688;7.130;2023-10-09T07:25:44;1408.13;;;999.90;;
15616;SDS011;7908;51.688;7.130;2023-10-09T07:28:27;1416.37;;;999.90;;
15616;SDS011;7908;51.688;7.130;2023-10-09T07:31:17;1409.43;;;999.90;;
15616;SDS011;7908;51.688;7.130;2023-10-09T07:34:08;1403.47;;;999.90;;
15616;SDS011;7908;51.688;7.130;2023-10-09T07:36:57;1410.27;;;999.90;;
15616;SDS011;7908;51.688;7.130;2023-10-09T07:39:32;1415.37;;;999.90;;
15616;SDS011;7908;51.688;7.130;2023-10-09T07:42:08;1416.77;;;999.90;;
15616;SDS011;7908;51.688;7.130;2023-10-09T07:44:56;1414.57;;;999.90;;
15616;SDS011;7908;51.688;7.130;2023-10-09T07:48:14;1395.00;;;999.90;;
15616;SDS011;7908;51.688;7.130;2023-10-09T07:50:45;1399.20;;;999.90;;
15616;SDS011;7908;51.688;7.130;2023-10-09T07:53:18;1395.57;;;999.90;;
15616;SDS011;7908;51.688;7.130;2023-10-09T07:55:54;1395.70;;;999.90;;
15616;SDS011;7908;51.688;7.130;2023-10-09T07:58:28;1397.53;;;999.90;;
15616;SDS011;7908;51.688;7.130;2023-10-09T08:01:01;1372.13;;;999.90;;
15616;SDS011;7908;51.688;7.130;2023-10-09T08:03:43;1378.77;;;999.90;;
15616;SDS011;7908;51.688;7.130;2023-10-09T08:06:28;1391.13;;;999.90;;
15616;SDS011;7908;51.688;7.130;2023-10-09T08:09:30;1387.10;;;999.90;;
15616;SDS011;7908;51.688;7.130;2023-10-09T08:12:17;1405.63;;;999.90;;
15616;SDS011;7908;51.688;7.130;2023-10-09T08:15:28;1398.47;;;999.90;;
15616;SDS011;7908;51.688;7.130;2023-10-09T08:18:18;1387.43;;;999.90;;
15616;SDS011;7908;51.688;7.130;2023-10-09T08:21:11;1381.10;;;999.90;;
15616;SDS011;7908;51.688;7.130;2023-10-09T08:24:15;1389.13;;;999.90;;
15616;SDS011;7908;51.688;7.130;2023-10-09T08:27:03;1393.77;;;999.90;;
15616;SDS011;7908;51.688;7.130;2023-10-09T08:30:03;1372.40;;;999.90;;
15616;SDS011;7908;51.688;7.130;2023-10-09T08:32:55;1381.67;;;999.90;;
15616;SDS011;7908;51.688;7.130;2023-10-09T08:35:55;1396.27;;;999.90;;
15616;SDS011;7908;51.688;7.130;2023-10-09T08:38:36;1378.00;;;999.90;;
15616;SDS011;7908;51.688;7.130;2023-10-09T08:41:10;1365.33;;;999.90;;
15616;SDS011;7908;51.688;7.130;2023-10-09T08:43:53;1366.00;;;999.90;;
15616;SDS011;7908;51.688;7.130;2023-10-09T08:46:26;1348.20;;;999.90;;
15616;SDS011;7908;51.688;7.130;2023-10-09T08:49:05;1374.93;;;999.90;;
15616;SDS011;7908;51.688;7.130;2023-10-09T08:51:40;1381.33;;;999.90;;
15616;SDS011;7908;51.688;7.130;2023-10-09T08:54:16;1385.77;;;999.90;;
15616;SDS011;7908;51.688;7.130;2023-10-09T08:56:46;1376.40;;;999.90;;
15616;SDS011;7908;51.688;7.130;2023-10-09T08:59:19;1355.30;;;999.90;;
15616;SDS011;7908;51.688;7.130;2023-10-09T09:01:52;1351.20;;;999.90;;
15616;SDS011;7908;51.688;7.130;2023-10-09T09:04:36;1361.20;;;999.90;;
15616;SDS011;7908;51.688;7.130;2023-10-09T09:07:21;1346.13;;;999.90;;
15616;SDS011;7908;51.688;7.130;2023-10-09T09:09:56;1342.63;;;999.90;;
15616;SDS011;7908;51.688;7.130;2023-10-09T09:12:30;1372.57;;;999.90;;
15616;SDS011;7908;51.688;7.130;2023-10-09T09:15:08;1357.23;;;999.90;;
15616;SDS011;7908;51.688;7.130;2023-10-09T09:18:08;1359.90;;;999.90;;
15616;SDS011;7908;51.688;7.130;2023-10-09T09:20:40;1361.07;;;999.90;;
15616;SDS011;7908;51.688;7.130;2023-10-09T09:23:20;1345.00;;;999.90;;
15616;SDS011;7908;51.688;7.130;2023-10-09T09:25:56;1352.33;;;999.90;;
15616;SDS011;7908;51.688;7.130;2023-10-09T09:28:42;1420.47;;;999.90;;
15616;SDS011;7908;51.688;7.130;2023-10-09T09:31:24;1393.70;;;999.90;;
15616;SDS011;7908;51.688;7.130;2023-10-09T09:34:09;1392.67;;;999.90;;
15616;SDS011;7908;51.688;7.130;2023-10-09T09:36:50;1403.77;;;999.90;;
15616;SDS011;7908;51.688;7.130;2023-10-09T09:39:23;1382.73;;;999.90;;
15616;SDS011;7908;51.688;7.130;2023-10-09T09:42:14;1393.40;;;999.90;;
15616;SDS011;7908;51.688;7.130;2023-10-09T09:44:57;1377.93;;;999.90;;
15616;SDS011;7908;51.688;7.130;2023-10-09T09:47:37;1380.43;;;999.90;;
15616;SDS011;7908;51.688;7.130;2023-10-09T09:50:27;1386.83;;;999.90;;
15616;SDS011;7908;51.688;7.130;2023-10-09T09:52:57;1391.17;;;999.90;;
15616;SDS011;7908;51.688;7.130;2023-10-09T09:55:34;1390.63;;;999.90;;
15616;SDS011;7908;51.688;7.130;2023-10-09T09:58:23;1353.10;;;999.90;;
15616;SDS011;7908;51.688;7.130;2023-10-09T10:01:09;1374.67;;;999.90;;
15616;SDS011;7908;51.688;7.130;2023-10-09T10:04:07;1366.33;;;999.90;;
15616;SDS011;7908;51.688;7.130;2023-10-09T10:06:57;1359.03;;;999.90;;
15616;SDS011;7908;51.688;7.130;2023-10-09T10:09:38;1365.20;;;999.90;;
15616;SDS011;7908;51.688;7.130;2023-10-09T10:12:09;1379.07;;;999.90;;
15616;SDS011;7908;51.688;7.130;2023-10-09T10:14:54;1373.27;;;999.90;;
15616;SDS011;7908;51.688;7.130;2023-10-09T10:17:26;1363.07;;;999.90;;
15616;SDS011;7908;51.688;7.130;2023-10-09T10:20:06;1370.67;;;999.90;;
15616;SDS011;7908;51.688;7.130;2023-10-09T10:23:19;1340.10;;;999.90;;
15616;SDS011;7908;51.688;7.130;2023-10-09T10:25:54;1368.83;;;999.90;;
15616;SDS011;7908;51.688;7.130;2023-10-09T10:28:41;1315.57;;;999.90;;
15616;SDS011;7908;51.688;7.130;2023-10-09T10:34:24;1333.37;;;999.90;;
15616;SDS011;7908;51.688;7.130;2023-10-09T10:37:34;1343.30;;;999.90;;
15616;SDS011;7908;51.688;7.130;2023-10-09T10:40:43;1350.90;;;999.90;;
15616;SDS011;7908;51.688;7.130;2023-10-09T10:43:17;1333.63;;;999.90;;
15616;SDS011;7908;51.688;7.130;2023-10-09T10:46:09;1332.97;;;999.90;;
15616;SDS011;7908;51.688;7.130;2023-10-09T10:48:46;1255.33;;;999.90;;
15616;SDS011;7908;51.688;7.130;2023-10-09T10:51:25;1335.47;;;999.90;;
15616;SDS011;7908;51.688;7.130;2023-10-09T10:54:08;1310.10;;;999.90;;
15616;SDS011;7908;51.688;7.130;2023-10-09T10:57:15;1342.87;;;999.90;;
15616;SDS011;7908;51.688;7.130;2023-10-09T11:00:34;1353.13;;;999.90;;
15616;SDS011;7908;51.688;7.130;2023-10-09T11:03:26;1345.30;;;999.90;;
15616;SDS011;7908;51.688;7.130;2023-10-09T11:06:06;1313.70;;;999.90;;
15616;SDS011;7908;51.688;7.130;2023-10-09T11:08:45;1393.87;;;999.90;;
15616;SDS011;7908;51.688;7.130;2023-10-09T11:11:36;1340.60;;;999.90;;
15616;SDS011;7908;51.688;7.130;2023-10-09T11:17:20;1170.27;;;999.90;;
15616;SDS011;7908;51.688;7.130;2023-10-09T11:19:55;1287.90;;;999.90;;
15616;SDS011;7908;51.688;7.130;2023-10-09T11:22:43;1342.73;;;999.90;;
15616;SDS011;7908;51.688;7.130;2023-10-09T11:25:45;1133.80;;;999.90;;
15616;SDS011;7908;51.688;7.130;2023-10-09T11:28:20;1296.63;;;999.90;;
15616;SDS011;7908;51.688;7.130;2023-10-09T11:31:10;1192.23;;;999.90;;
15616;SDS011;7908;51.688;7.130;2023-10-09T11:33:48;1249.77;;;999.90;;
15616;SDS011;7908;51.688;7.130;2023-10-09T11:36:22;1211.90;;;999.90;;
15616;SDS011;7908;51.688;7.130;2023-10-09T11:39:12;1278.43;;;999.90;;
15616;SDS011;7908;51.688;7.130;2023-10-09T11:42:05;1334.43;;;999.90;;
15616;SDS011;7908;51.688;7.130;2023-10-09T11:45:02;1195.63;;;999.90;;
15616;SDS011;7908;51.688;7.130;2023-10-09T11:47:52;1299.23;;;999.90;;
15616;SDS011;7908;51.688;7.130;2023-10-09T11:50:42;1225.57;;;999.90;;
15616;SDS011;7908;51.688;7.130;2023-10-09T11:53:22;1277.60;;;999.90;;
15616;SDS011;7908;51.688;7.130;2023-10-09T11:56:07;1304.43;;;999.90;;
15616;SDS011;7908;51.688;7.130;2023-10-09T11:58:50;1331.53;;;999.90;;
15616;SDS011;7908;51.688;7.130;2023-10-09T12:01:48;1169.83;;;999.90;;
15616;SDS011;7908;51.688;7.130;2023-10-09T12:04:43;1287.47;;;999.90;;
15616;SDS011;7908;51.688;7.130;2023-10-09T12:07:20;1265.63;;;999.90;;
15616;SDS011;7908;51.688;7.130;2023-10-09T12:09:58;1192.57;;;999.90;;
15616;SDS011;7908;51.688;7.130;2023-10-09T12:12:29;1177.33;;;999.90;;
15616;SDS011;7908;51.688;7.130;2023-10-09T12:15:13;1175.13;;;999.90;;
15616;SDS011;7908;51.688;7.130;2023-10-09T12:17:48;1254.87;;;999.90;;
15616;SDS011;7908;51.688;7.130;2023-10-09T12:20:25;1276.17;;;999.90;;
15616;SDS011;7908;51.688;7.130;2023-10-09T12:23:13;1114.80;;;995.93;;
15616;SDS011;7908;51.688;7.130;2023-10-09T12:25:52;1206.10;;;999.90;;
15616;SDS011;7908;51.688;7.130;2023-10-09T12:28:27;1265.57;;;999.90;;
15616;SDS011;7908;51.688;7.130;2023-10-09T12:30:57;1239.20;;;999.90;;
15616;SDS011;7908;51.688;7.130;2023-10-09T12:33:29;1332.27;;;999.90;;
15616;SDS011;7908;51.688;7.130;2023-10-09T12:36:04;1301.80;;;999.90;;
15616;SDS011;7908;51.688;7.130;2023-10-09T12:38:44;1159.57;;;999.90;;
15616;SDS011;7908;51.688;7.130;2023-10-09T12:41:20;1290.13;;;999.90;;
15616;SDS011;7908;51.688;7.130;2023-10-09T12:44:08;1268.57;;;999.90;;
15616;SDS011;7908;51.688;7.130;2023-10-09T12:46:49;1013.17;;;919.57;;
15616;SDS011;7908;51.688;7.130;2023-10-09T12:49:23;1208.00;;;999.90;;
15616;SDS011;7908;51.688;7.130;2023-10-09T12:51:58;1238.77;;;999.90;;
15616;SDS011;7908;51.688;7.130;2023-10-09T12:54:37;1192.87;;;999.90;;
15616;SDS011;7908;51.688;7.130;2023-10-09T12:57:14;1346.33;;;999.90;;
15616;SDS011;7908;51.688;7.130;2023-10-09T13:00:01;1335.53;;;999.90;;
15616;SDS011;7908;51.688;7.130;2023-10-09T13:02:39;1377.77;;;999.90;;
15616;SDS011;7908;51.688;7.130;2023-10-09T13:05:26;1316.10;;;999.90;;
15616;SDS011;7908;51.688;7.130;2023-10-09T13:08:09;1327.13;;;999.90;;
15616;SDS011;7908;51.688;7.130;2023-10-09T13:10:38;1282.53;;;999.90;;
15616;SDS011;7908;51.688;7.130;2023-10-09T13:13:11;1342.93;;;999.90;;
15616;SDS011;7908;51.688;7.130;2023-10-09T13:15:43;1305.60;;;999.90;;
15616;SDS011;7908;51.688;7.130;2023-10-09T13:18:32;1260.33;;;999.90;;
15616;SDS011;7908;51.688;7.130;2023-10-09T13:21:05;1344.50;;;999.90;;
15616;SDS011;7908;51.688;7.130;2023-10-09T13:23:38;1301.53;;;999.90;;
15616;SDS011;7908;51.688;7.130;2023-10-09T13:26:17;1338.40;;;999.90;;
15616;SDS011;7908;51.688;7.130;2023-10-09T13:29:00;1294.77;;;999.90;;
15616;SDS011;7908;51.688;7.130;2023-10-09T13:31:44;1243.60;;;999.90;;
15616;SDS011;7908;51.688;7.130;2023-10-09T13:34:16;1254.63;;;999.90;;
15616;SDS011;7908;51.688;7.130;2023-10-09T13:36:46;1106.77;;;991.87;;
15616;SDS011;7908;51.688;7.130;2023-10-09T13:39:30;1348.63;;;999.90;;
15616;SDS011;7908;51.688;7.130;2023-10-09T13:42:20;1342.47;;;999.90;;
15616;SDS011;7908;51.688;7.130;2023-10-09T13:44:55;1254.17;;;999.90;;
15616;SDS011;7908;51.688;7.130;2023-10-09T13:47:30;1256.83;;;999.90;;
15616;SDS011;7908;51.688;7.130;2023-10-09T13:50:12;1250.70;;;999.90;;
15616;SDS011;7908;51.688;7.130;2023-10-09T13:52:50;1338.33;;;999.90;;
15616;SDS011;7908;51.688;7.130;2023-10-09T13:55:35;1248.30;;;999.90;;
15616;SDS011;7908;51.688;7.130;2023-10-09T13:58:11;1315.53;;;999.90;;
15616;SDS011;7908;51.688;7.130;2023-10-09T14:00:49;1353.40;;;999.90;;
15616;SDS011;7908;51.688;7.130;2023-10-09T14:03:27;1327.13;;;999.90;;
15616;SDS011;7908;51.688;7.130;2023-10-09T14:06:14;1345.07;;;999.90;;
15616;SDS011;7908;51.688;7.130;2023-10-09T14:08:58;1192.73;;;999.90;;
15616;SDS011;7908;51.688;7.130;2023-10-09T14:11:36;1113.20;;;994.40;;
15616;SDS011;7908;51.688;7.130;2023-10-09T14:14:07;1323.00;;;999.90;;
15616;SDS011;7908;51.688;7.130;2023-10-09T14:17:05;1304.27;;;999.90;;
15616;SDS011;7908;51.688;7.130;2023-10-09T14:19:54;1293.33;;;999.90;;
15616;SDS011;7908;51.688;7.130;2023-10-09T14:22:58;1211.80;;;999.90;;
15616;SDS011;7908;51.688;7.130;2023-10-09T14:25:43;1278.17;;;999.90;;
15616;SDS011;7908;51.688;7.130;2023-10-09T14:28:22;1221.07;;;999.90;;
15616;SDS011;7908;51.688;7.130;2023-10-09T14:31:06;1342.13;;;999.90;;
15616;SDS011;7908;51.688;7.130;2023-10-09T14:34:13;1358.50;;;999.90;;
15616;SDS011;7908;51.688;7.130;2023-10-09T14:36:45;1332.73;;;999.90;;
15616;SDS011;7908;51.688;7.130;2023-10-09T14:39:29;1305.30;;;999.90;;
15616;SDS011;7908;51.688;7.130;2023-10-09T14:42:26;884.47;;;799.50;;
15616;SDS011;7908;51.688;7.130;2023-10-09T14:45:02;1275.63;;;999.90;;
15616;SDS011;7908;51.688;7.130;2023-10-09T14:47:36;1313.67;;;999.90;;
15616;SDS011;7908;51.688;7.130;2023-10-09T14:50:12;1368.20;;;999.90;;
15616;SDS011;7908;51.688;7.130;2023-10-09T14:52:49;1334.97;;;999.90;;
15616;SDS011;7908;51.688;7.130;2023-10-09T14:55:29;1327.90;;;999.90;;
15616;SDS011;7908;51.688;7.130;2023-10-09T14:58:04;1358.27;;;999.90;;
15616;SDS011;7908;51.688;7.130;2023-10-09T15:00:45;1344.77;;;999.90;;
15616;SDS011;7908;51.688;7.130;2023-10-09T15:03:18;1342.37;;;999.90;;
15616;SDS011;7908;51.688;7.130;2023-10-09T15:05:54;1397.80;;;999.90;;
15616;SDS011;7908;51.688;7.130;2023-10-09T15:08:30;1393.17;;;999.90;;
15616;SDS011;7908;51.688;7.130;2023-10-09T15:11:03;1394.50;;;999.90;;
15616;SDS011;7908;51.688;7.130;2023-10-09T15:13:38;1394.30;;;999.90;;
15616;SDS011;7908;51.688;7.130;2023-10-09T15:16:09;1367.53;;;999.90;;
15616;SDS011;7908;51.688;7.130;2023-10-09T15:18:43;1365.93;;;999.90;;
15616;SDS011;7908;51.688;7.130;2023-10-09T15:21:17;1373.63;;;999.90;;